Aviation Digital Data Service (ADDS)

Output produced by METARs form (1706 UTC 24 April 2017)
found at http://www.aviationweather.gov/adds/metars/
 
FMMI 241700Z 00000KT 9999 FEW020 18/18 Q1020 NOSIG
TAF FMMI 241700Z 2418/2524 00000KT 9999 FEW017 BKN020 
     PROB40 
     TEMPO 2418/2503 DZ 
     BECMG 2507/2509 32010KT 
     PROB30 
     TEMPO 2514/2520 DZ
       
TAF FMNA 241700Z 2418/2518 08008KT 9999 FEW020 SCT040
       
FMNM 241600Z 30006KT 9999 FEW020CB 27/21 Q1013 NOSIG
TAF FMNM 241700Z 2418/2518 16006KT 9999 FEW020 SCT040 
     BECMG 2506/2509 28010KT
       
FMNN 241400Z 27004KT 9999 FEW020 30/23 Q1012
TAF FMNN 241700Z 2418/2518 14005KT 9999 FEW020 SCT040 
     BECMG 2506/2509 28010KT
       
TAF FMMS 241700Z 2418/2518 08010KT 9999 SCT017 BKN033 
     PROB40 
     TEMPO 2418/2503 4500 SHRA
       
FMMT 241600Z 34002KT 9999 FEW017TCU 27/24 Q1012 NOSIG
TAF FMMT 241100Z 2412/2512 08010KT 9999 SCT017 
     BECMG 2415/2418 00000KT 
     BECMG 2503/2506 16010KT
       
FMSD 241600Z 00000KT 9999 FEW016 SCT033 24/19 Q1014
TAF FMSD 241700Z 2418/2518 16010KT 9999 SCT017CB BKN033 
     PROB40 
     TEMPO 2418/2512 4000 TSRA
       
TAF FMST 241700Z 2418/2518 22012KT 9999 SCT020CB BKN040 
     PROB40 
     TEMPO 2418/2506 4000 TSRA